Enter the Airport ICAO Code

Search by Airport or City

Current Weather

LEZG | Zaragoza Airport

Zaragoza, Aragon, Spain

Last Update 13 Minutes Ago

Heavy Thunderstorm with Rain

Temperature of 21 ēC

Light to Moderate Winds from East

Temperature

21 ēC

Dew Point Temperature

18 ēC

Relative Humidity

83.08 %

Wind Direction

East (090ē, Without Significant Variations)

Wind Velocity

15 km/h (08 kt)

Gusts

None

Visibility

Reduced to 2.5 Kilometers

Sea Level Pressure

1014 hPa (Hectopascals)

Layers of Clouds

30% to 60% of Sky Covered from 1219 mts (4000 ft) Above Ground Level.

60% to 90% of Sky Covered with Cumulonimbus from 1676 mts (5500 ft) Above Ground Level.

METAR LEZG 191315Z 09008KT 2500 +TSRA SCT040 BKN055CB 21/18 Q1014

Weather Forecast

LEZG | Zaragoza Airport

Zaragoza, Aragon, Spain

Forecast valid for the next 23 Hours

From now on it is expected:

Sky with Few Clouds

Light Winds from Variable Directions

From now on it is expected 2 hours with intermittent periods of:

Thunderstorm with Rain

Moderate Winds from West with Gusts

Maximum Temperature

27 ēC in 1 Hour

Minimum Temperature

17 ēC in 17 Hours

TAF LEZG 191318Z 1913/2012 VRB04KT 9999 FEW050 TX27/1914Z TN17/2006Z PROB40 TEMPO 1913/2004 4000 TSRA FEW050CB TEMPO 1913/1915 25015G25KT 2000 TSRA BKN050CB